createdAt,value
2017-09-22T00:03:38.892Z,101620.88
2017-09-22T00:08:41.333Z,101619.95
2017-09-22T00:13:43.913Z,101617.80
2017-09-22T00:18:46.591Z,101605.03
2017-09-22T00:23:49.102Z,101607.84
2017-09-22T00:28:51.523Z,101608.61
2017-09-22T00:33:54.106Z,101612.98
2017-09-22T00:38:56.519Z,101602.23
2017-09-22T00:43:59.167Z,101595.23
2017-09-22T00:49:01.389Z,101586.73
2017-09-22T00:54:04.117Z,101589.48
2017-09-22T00:59:06.952Z,101598.70
2017-09-22T01:04:10.178Z,101597.08
2017-09-22T01:09:13.558Z,101602.50
2017-09-22T01:14:17.412Z,101594.27
2017-09-22T01:19:19.997Z,101592.77
2017-09-22T01:24:22.585Z,101587.41
2017-09-22T01:29:25.142Z,101580.18
2017-09-22T01:34:27.699Z,101572.73
2017-09-22T01:39:30.533Z,101580.23
2017-09-22T01:44:33.166Z,101573.30
2017-09-22T01:49:35.785Z,101568.50
2017-09-22T01:54:38.341Z,101565.81
2017-09-22T01:59:41.730Z,101555.11
2017-09-22T02:04:45.128Z,101559.06
2017-09-22T02:09:47.725Z,101563.91
2017-09-22T02:14:49.660Z,101563.53
2017-09-22T02:19:52.262Z,101561.34
2017-09-22T02:24:54.846Z,101557.80
2017-09-22T02:29:57.911Z,101560.33
2017-09-22T02:35:01.286Z,101562.72
2017-09-22T02:40:04.016Z,101566.53
2017-09-22T02:45:06.218Z,101566.27
2017-09-22T02:50:09.542Z,101576.13
2017-09-22T02:55:12.202Z,101581.20
2017-09-22T03:00:14.526Z,101580.95
2017-09-22T03:05:16.897Z,101578.76
2017-09-22T03:10:19.603Z,101575.11
2017-09-22T03:15:22.225Z,101576.47
2017-09-22T03:20:24.844Z,101573.66
2017-09-22T03:25:28.091Z,101562.63
2017-09-22T03:30:30.426Z,101559.36
2017-09-22T03:35:33.010Z,101565.09
2017-09-22T03:40:35.565Z,101561.98
2017-09-22T03:45:38.390Z,101571.00
2017-09-22T03:50:41.806Z,101565.27
2017-09-22T03:55:44.671Z,101566.26
2017-09-22T04:00:47.335Z,101564.96
2017-09-22T04:05:49.591Z,101564.62
2017-09-22T04:10:52.097Z,101559.68
2017-09-22T04:15:55.079Z,101561.29
2017-09-22T04:20:57.210Z,101556.00
2017-09-22T04:26:00.634Z,101553.42
2017-09-22T04:31:04.323Z,101558.50
2017-09-22T04:36:06.959Z,101561.83
2017-09-22T04:41:09.858Z,101559.33
2017-09-22T04:46:12.157Z,101561.11
2017-09-22T04:51:14.817Z,101559.59
2017-09-22T04:56:17.294Z,101556.41
2017-09-22T05:01:19.917Z,101552.91
2017-09-22T05:06:22.260Z,101551.81
2017-09-22T05:11:24.940Z,101547.63
2017-09-22T05:16:29.600Z,101547.67
2017-09-22T05:21:32.202Z,101543.51
2017-09-22T05:26:34.812Z,101542.13
2017-09-22T05:31:37.537Z,101545.37
2017-09-22T05:36:40.240Z,101554.59
2017-09-22T05:41:42.896Z,101552.28
2017-09-22T05:46:45.216Z,101543.06
2017-09-22T05:51:47.965Z,101545.93
2017-09-22T05:56:50.546Z,101550.17
2017-09-22T06:01:52.679Z,101554.49
2017-09-22T06:06:55.175Z,101554.39
2017-09-22T06:11:57.816Z,101554.73
2017-09-22T06:17:07.229Z,101554.77
2017-09-22T06:22:09.776Z,101554.95
2017-09-22T06:27:13.178Z,101566.56
2017-09-22T06:32:15.747Z,101575.83
2017-09-22T06:37:18.018Z,101567.78
2017-09-22T06:42:20.639Z,101576.78
2017-09-22T06:47:23.882Z,101574.78
2017-09-22T06:52:26.055Z,101580.66
2017-09-22T06:57:28.411Z,101588.73
2017-09-22T07:02:31.089Z,101588.66
2017-09-22T07:07:34.394Z,101599.75
2017-09-22T07:12:36.948Z,101600.91
2017-09-22T07:17:39.392Z,101597.70
2017-09-22T07:22:41.697Z,101599.22
2017-09-22T07:27:45.941Z,101607.39
2017-09-22T07:32:48.447Z,101611.69
2017-09-22T07:37:50.992Z,101607.87
2017-09-22T07:42:53.615Z,101611.55
2017-09-22T07:47:56.096Z,101590.37
2017-09-22T07:52:58.732Z,101600.50
2017-09-22T07:58:01.373Z,101598.30
2017-09-22T08:03:04.051Z,101596.59
2017-09-22T08:08:06.599Z,101603.92
2017-09-22T08:13:09.034Z,101602.64
2017-09-22T08:18:11.099Z,101614.94
2017-09-22T08:23:13.722Z,101612.16
2017-09-22T08:28:16.394Z,101610.79
2017-09-22T08:33:18.907Z,101605.83
2017-09-22T08:38:21.441Z,101600.91
2017-09-22T08:43:23.990Z,101604.78
2017-09-22T08:48:26.022Z,101600.50
2017-09-22T08:53:28.671Z,101598.85
2017-09-22T08:58:31.205Z,101593.27
2017-09-22T09:03:33.504Z,101593.33
2017-09-22T09:08:36.494Z,101591.08
2017-09-22T09:13:39.079Z,101586.13
2017-09-22T09:18:41.788Z,101585.87
2017-09-22T09:23:43.891Z,101591.03
2017-09-22T09:28:46.473Z,101580.17
2017-09-22T09:33:49.759Z,101588.67
2017-09-22T09:38:52.400Z,101594.30
2017-09-22T09:43:54.427Z,101592.70
2017-09-22T09:48:56.812Z,101589.40
2017-09-22T09:53:59.168Z,101587.81
2017-09-22T09:59:01.771Z,101592.92
2017-09-22T10:04:04.350Z,101586.30
2017-09-22T10:09:06.522Z,101586.25
2017-09-22T10:14:10.257Z,101575.73
2017-09-22T10:19:12.997Z,101575.95
2017-09-22T10:24:15.693Z,101570.17
2017-09-22T10:29:18.606Z,101578.34
2017-09-22T10:34:23.847Z,101567.76
2017-09-22T10:39:33.018Z,101568.73
2017-09-22T10:44:40.337Z,101567.41
2017-09-22T10:49:48.452Z,101569.25
2017-09-22T10:54:55.994Z,101575.28
2017-09-22T10:59:58.135Z,101578.61
2017-09-22T11:05:00.062Z,101575.83
2017-09-22T11:10:02.054Z,101577.18
2017-09-22T11:15:04.033Z,101567.86
2017-09-22T11:20:06.718Z,101573.48
2017-09-22T11:25:08.664Z,101571.38
2017-09-22T11:30:10.614Z,101569.23
2017-09-22T11:35:12.571Z,101567.03
2017-09-22T11:40:14.580Z,101575.94
2017-09-22T11:45:17.315Z,101567.92
2017-09-22T11:50:19.313Z,101573.23
2017-09-22T11:55:21.247Z,101570.92
2017-09-22T12:00:23.198Z,101569.59
2017-09-22T12:05:25.156Z,101561.73
2017-09-22T12:10:27.659Z,101559.53
2017-09-22T12:15:30.056Z,101558.58
2017-09-22T12:20:33.131Z,101567.40
2017-09-22T12:25:35.823Z,101566.82
2017-09-22T12:30:39.889Z,101568.12
2017-09-22T12:35:43.907Z,101563.66
2017-09-22T12:40:45.871Z,101567.97
2017-09-22T12:45:47.802Z,101560.83
2017-09-22T12:50:49.759Z,101560.67
2017-09-22T12:55:51.688Z,101565.92
2017-09-22T13:00:53.663Z,101563.83
2017-09-22T13:05:55.757Z,101557.09
2017-09-22T13:10:57.772Z,101546.75
2017-09-22T13:16:00.075Z,101552.67
2017-09-22T13:21:03.128Z,101549.09
2017-09-22T13:26:05.362Z,101552.97
2017-09-22T13:31:07.389Z,101550.92
2017-09-22T13:36:09.347Z,101561.77
2017-09-22T13:41:11.341Z,101570.02
2017-09-22T13:46:13.616Z,101560.75
2017-09-22T13:51:16.345Z,101564.66
2017-09-22T13:56:18.348Z,101564.84
2017-09-22T14:01:20.444Z,101558.38
2017-09-22T14:06:22.424Z,101557.83
2017-09-22T14:11:24.413Z,101559.67
2017-09-22T14:16:26.424Z,101554.28
2017-09-22T14:21:28.380Z,101554.48
2017-09-22T14:26:30.355Z,101558.50
2017-09-22T14:31:32.319Z,101558.28
2017-09-22T14:36:34.247Z,101547.36
2017-09-22T14:41:36.194Z,101557.67
2017-09-22T14:46:38.110Z,101560.39
2017-09-22T14:51:40.041Z,101560.27
2017-09-22T14:56:42.746Z,101562.59
2017-09-22T15:01:45.612Z,101567.35
2017-09-22T15:06:47.543Z,101563.88
2017-09-22T15:11:49.501Z,101561.95
2017-09-22T15:16:52.955Z,101561.53
2017-09-22T15:21:54.909Z,101562.68
2017-09-22T15:26:56.913Z,101568.80
2017-09-22T15:31:58.932Z,101568.70
2017-09-22T15:37:01.073Z,101564.20
2017-09-22T15:42:03.096Z,101562.04
2017-09-22T15:47:05.786Z,101567.17
2017-09-22T15:52:07.690Z,101567.16
2017-09-22T15:57:10.440Z,101572.14
2017-09-22T16:02:13.123Z,101569.84
2017-09-22T16:07:15.792Z,101573.84
2017-09-22T16:12:17.768Z,101581.36
2017-09-22T16:17:19.767Z,101574.47
2017-09-22T16:22:21.713Z,101587.28
2017-09-22T16:27:23.775Z,101587.91
2017-09-22T16:32:25.767Z,101594.59
2017-09-22T16:37:28.155Z,101598.00
2017-09-22T16:42:31.439Z,101600.80
2017-09-22T16:47:33.729Z,101604.45
2017-09-22T16:52:36.633Z,101600.56
2017-09-22T16:57:39.037Z,101607.66
2017-09-22T17:02:40.983Z,101610.85
2017-09-22T17:07:44.333Z,101612.21
2017-09-22T17:12:48.642Z,101619.69
2017-09-22T17:17:50.830Z,101638.94
2017-09-22T17:22:53.518Z,101634.22
2017-09-22T17:27:56.730Z,101628.59
2017-09-22T17:32:58.725Z,101634.52
2017-09-22T17:38:01.060Z,101630.84
2017-09-22T17:43:09.694Z,101629.35
2017-09-22T17:48:12.166Z,101631.45
2017-09-22T17:53:14.460Z,101636.48
2017-09-22T17:58:22.298Z,101641.80
2017-09-22T18:03:26.977Z,101643.72
2017-09-22T18:08:28.934Z,101642.05
2017-09-22T18:13:32.399Z,101647.48
2017-09-22T18:18:36.136Z,101653.76
2017-09-22T18:23:38.095Z,101653.33
2017-09-22T18:28:40.186Z,101662.70
2017-09-22T18:33:42.198Z,101665.96
2017-09-22T18:38:53.289Z,101668.72
2017-09-22T18:43:55.526Z,101672.70
2017-09-22T18:48:57.606Z,101679.39
2017-09-22T18:54:00.201Z,101680.03
2017-09-22T18:59:06.631Z,101681.79
2017-09-22T19:04:11.844Z,101679.75
2017-09-22T19:09:14.752Z,101678.09
2017-09-22T19:14:21.132Z,101678.60
2017-09-22T19:19:28.044Z,101692.82
2017-09-22T19:24:30.792Z,101691.73
2017-09-22T19:29:36.587Z,101688.19
2017-09-22T19:34:42.501Z,101693.27
2017-09-22T19:39:48.938Z,101698.65
2017-09-22T19:44:55.774Z,101697.91
2017-09-22T19:49:59.513Z,101696.27
2017-09-22T19:55:02.663Z,101702.66
2017-09-22T20:00:05.874Z,101698.13
2017-09-22T20:05:09.014Z,101710.98
2017-09-22T20:10:12.581Z,101705.53
2017-09-22T20:15:18.855Z,101708.53
2017-09-22T20:20:21.054Z,101717.67
2017-09-22T20:25:23.819Z,101720.45
2017-09-22T20:30:25.837Z,101724.34
2017-09-22T20:35:27.890Z,101744.67
2017-09-22T20:40:30.112Z,101749.16
2017-09-22T20:45:32.912Z,101747.91
2017-09-22T20:50:34.922Z,101754.28
2017-09-22T20:55:37.785Z,101751.82
2017-09-22T21:00:39.835Z,101751.39
2017-09-22T21:05:41.927Z,101759.11
2017-09-22T21:10:43.915Z,101760.84
2017-09-22T21:15:45.913Z,101756.39
2017-09-22T21:20:47.961Z,101747.92
2017-09-22T21:25:50.010Z,101760.38
2017-09-22T21:30:52.074Z,101759.95
2017-09-22T21:35:54.060Z,101756.26
2017-09-22T21:40:56.232Z,101748.02
2017-09-22T21:46:00.819Z,101744.81
2017-09-22T21:51:02.933Z,101761.09
2017-09-22T21:56:05.005Z,101762.93
2017-09-22T22:01:07.019Z,101752.89
2017-09-22T22:06:15.022Z,101759.10
2017-09-22T22:11:17.038Z,101753.88
2017-09-22T22:16:19.148Z,101756.86
2017-09-22T22:21:21.151Z,101755.98
2017-09-22T22:26:24.109Z,101747.34
2017-09-22T22:31:26.443Z,101742.37
2017-09-22T22:36:28.626Z,101750.09
2017-09-22T22:41:30.978Z,101751.38
2017-09-22T22:46:32.961Z,101759.90
2017-09-22T22:51:35.230Z,101753.31
2017-09-22T22:56:37.622Z,101760.67
2017-09-22T23:01:40.553Z,101758.84
2017-09-22T23:06:43.156Z,101767.00
2017-09-22T23:11:45.565Z,101765.19
2017-09-22T23:16:52.802Z,101761.53
2017-09-22T23:21:58.722Z,101770.95
2017-09-22T23:27:05.472Z,101774.91
2017-09-22T23:32:13.837Z,101782.13
2017-09-22T23:37:20.064Z,101785.48
2017-09-22T23:42:22.292Z,101786.54
2017-09-22T23:47:29.772Z,101794.20
2017-09-22T23:52:38.045Z,101808.84
2017-09-22T23:57:46.068Z,101820.03
